sensor_id;sensor_type;location;lat;lon;timestamp;temperature;humidity
28632;DHT22;15818;45.534;5.292;2022-10-18T00:01:41;16.90;99.90
28632;DHT22;15818;45.534;5.292;2022-10-18T00:04:06;16.80;99.90
28632;DHT22;15818;45.534;5.292;2022-10-18T00:06:32;16.80;99.90
28632;DHT22;15818;45.534;5.292;2022-10-18T00:08:58;16.90;99.90
28632;DHT22;15818;45.534;5.292;2022-10-18T00:11:23;16.80;99.90
28632;DHT22;15818;45.534;5.292;2022-10-18T00:13:49;16.90;99.90
28632;DHT22;15818;45.534;5.292;2022-10-18T00:16:16;16.90;99.90
28632;DHT22;15818;45.534;5.292;2022-10-18T00:18:42;16.90;99.90
28632;DHT22;15818;45.534;5.292;2022-10-18T00:21:15;16.80;99.90
28632;DHT22;15818;45.534;5.292;2022-10-18T00:23:41;16.80;99.90
28632;DHT22;15818;45.534;5.292;2022-10-18T00:26:16;16.80;99.90
28632;DHT22;15818;45.534;5.292;2022-10-18T00:28:42;16.80;99.90
28632;DHT22;15818;45.534;5.292;2022-10-18T00:31:18;16.90;99.90
28632;DHT22;15818;45.534;5.292;2022-10-18T00:33:46;16.90;99.90
28632;DHT22;15818;45.534;5.292;2022-10-18T00:36:13;16.80;99.90
28632;DHT22;15818;45.534;5.292;2022-10-18T00:38:39;16.80;99.90
28632;DHT22;15818;45.534;5.292;2022-10-18T00:41:07;16.80;99.90
28632;DHT22;15818;45.534;5.292;2022-10-18T00:44:01;16.80;99.90
28632;DHT22;15818;45.534;5.292;2022-10-18T00:46:30;16.80;99.90
28632;DHT22;15818;45.534;5.292;2022-10-18T00:49:06;16.90;99.90
28632;DHT22;15818;45.534;5.292;2022-10-18T00:51:46;16.90;99.90
28632;DHT22;15818;45.534;5.292;2022-10-18T00:54:14;16.80;99.90
28632;DHT22;15818;45.534;5.292;2022-10-18T00:56:40;16.80;99.90
28632;DHT22;15818;45.534;5.292;2022-10-18T00:59:06;16.80;99.90
28632;DHT22;15818;45.534;5.292;2022-10-18T01:01:32;16.80;99.90
28632;DHT22;15818;45.534;5.292;2022-10-18T01:03:58;16.70;99.90
28632;DHT22;15818;45.534;5.292;2022-10-18T01:06:24;16.70;99.90
28632;DHT22;15818;45.534;5.292;2022-10-18T01:20:06;16.70;99.90
28632;DHT22;15818;45.534;5.292;2022-10-18T01:22:47;16.70;99.90
28632;DHT22;15818;45.534;5.292;2022-10-18T01:31:04;16.70;99.90
28632;DHT22;15818;45.534;5.292;2022-10-18T01:33:42;16.70;99.90
28632;DHT22;15818;45.534;5.292;2022-10-18T01:39:13;16.60;99.90
28632;DHT22;15818;45.534;5.292;2022-10-18T01:41:41;16.50;99.90
28632;DHT22;15818;45.534;5.292;2022-10-18T01:44:11;16.50;99.90
28632;DHT22;15818;45.534;5.292;2022-10-18T01:46:39;16.50;99.90
28632;DHT22;15818;45.534;5.292;2022-10-18T01:49:06;16.40;99.90
28632;DHT22;15818;45.534;5.292;2022-10-18T01:51:32;16.40;99.90
28632;DHT22;15818;45.534;5.292;2022-10-18T01:53:58;16.40;99.90
28632;DHT22;15818;45.534;5.292;2022-10-18T01:59:49;16.40;99.90
28632;DHT22;15818;45.534;5.292;2022-10-18T02:02:35;16.30;99.90
28632;DHT22;15818;45.534;5.292;2022-10-18T02:05:20;16.30;99.90
28632;DHT22;15818;45.534;5.292;2022-10-18T02:13:13;16.30;99.90
28632;DHT22;15818;45.534;5.292;2022-10-18T02:15:43;16.20;99.90
28632;DHT22;15818;45.534;5.292;2022-10-18T02:18:22;16.20;99.90
28632;DHT22;15818;45.534;5.292;2022-10-18T02:20:50;16.10;99.90
28632;DHT22;15818;45.534;5.292;2022-10-18T02:23:20;16.10;99.90
28632;DHT22;15818;45.534;5.292;2022-10-18T02:25:47;16.10;99.90
28632;DHT22;15818;45.534;5.292;2022-10-18T02:28:13;16.10;99.90
28632;DHT22;15818;45.534;5.292;2022-10-18T02:30:49;16.10;99.90
28632;DHT22;15818;45.534;5.292;2022-10-18T02:33:26;16.10;99.90
28632;DHT22;15818;45.534;5.292;2022-10-18T02:36:01;16.10;99.90
28632;DHT22;15818;45.534;5.292;2022-10-18T02:38:29;16.00;99.90
28632;DHT22;15818;45.534;5.292;2022-10-18T02:40:56;16.00;99.90
28632;DHT22;15818;45.534;5.292;2022-10-18T02:43:23;16.00;99.90
28632;DHT22;15818;45.534;5.292;2022-10-18T02:45:49;16.00;99.90
28632;DHT22;15818;45.534;5.292;2022-10-18T02:48:15;16.00;99.90
28632;DHT22;15818;45.534;5.292;2022-10-18T02:50:41;16.00;99.90
28632;DHT22;15818;45.534;5.292;2022-10-18T02:53:06;16.00;99.90
28632;DHT22;15818;45.534;5.292;2022-10-18T02:55:32;16.00;99.90
28632;DHT22;15818;45.534;5.292;2022-10-18T02:57:57;16.00;99.90
28632;DHT22;15818;45.534;5.292;2022-10-18T03:00:23;16.00;99.90
28632;DHT22;15818;45.534;5.292;2022-10-18T03:02:49;15.90;99.90
28632;DHT22;15818;45.534;5.292;2022-10-18T03:05:14;15.90;99.90
28632;DHT22;15818;45.534;5.292;2022-10-18T03:07:40;15.90;99.90
28632;DHT22;15818;45.534;5.292;2022-10-18T03:10:06;15.90;99.90
28632;DHT22;15818;45.534;5.292;2022-10-18T03:12:32;15.90;99.90
28632;DHT22;15818;45.534;5.292;2022-10-18T03:14:58;15.90;99.90
28632;DHT22;15818;45.534;5.292;2022-10-18T03:17:23;15.90;99.90
28632;DHT22;15818;45.534;5.292;2022-10-18T03:19:49;15.90;99.90
28632;DHT22;15818;45.534;5.292;2022-10-18T03:22:15;15.90;99.90
28632;DHT22;15818;45.534;5.292;2022-10-18T03:24:40;16.00;99.90
28632;DHT22;15818;45.534;5.292;2022-10-18T03:27:06;16.00;99.90
28632;DHT22;15818;45.534;5.292;2022-10-18T03:29:32;16.00;99.90
28632;DHT22;15818;45.534;5.292;2022-10-18T03:31:57;16.00;99.90
28632;DHT22;15818;45.534;5.292;2022-10-18T03:34:23;16.00;99.90
28632;DHT22;15818;45.534;5.292;2022-10-18T03:36:48;15.90;99.90
28632;DHT22;15818;45.534;5.292;2022-10-18T03:39:14;15.80;99.90
28632;DHT22;15818;45.534;5.292;2022-10-18T03:41:40;15.80;99.90
28632;DHT22;15818;45.534;5.292;2022-10-18T03:44:05;15.80;99.90
28632;DHT22;15818;45.534;5.292;2022-10-18T03:46:31;15.80;99.90
28632;DHT22;15818;45.534;5.292;2022-10-18T03:48:56;15.80;99.90
28632;DHT22;15818;45.534;5.292;2022-10-18T03:51:22;15.80;99.90
28632;DHT22;15818;45.534;5.292;2022-10-18T03:53:48;15.80;99.90
28632;DHT22;15818;45.534;5.292;2022-10-18T03:56:13;15.80;99.90
28632;DHT22;15818;45.534;5.292;2022-10-18T03:58:39;15.80;99.90
28632;DHT22;15818;45.534;5.292;2022-10-18T04:01:05;15.70;99.90
28632;DHT22;15818;45.534;5.292;2022-10-18T04:03:31;15.70;99.90
28632;DHT22;15818;45.534;5.292;2022-10-18T04:05:57;15.60;99.90
28632;DHT22;15818;45.534;5.292;2022-10-18T04:08:25;15.60;99.90
28632;DHT22;15818;45.534;5.292;2022-10-18T04:10:50;15.70;99.90
28632;DHT22;15818;45.534;5.292;2022-10-18T04:13:17;15.70;99.90
28632;DHT22;15818;45.534;5.292;2022-10-18T04:15:42;15.70;99.90
28632;DHT22;15818;45.534;5.292;2022-10-18T04:18:08;15.70;99.90
28632;DHT22;15818;45.534;5.292;2022-10-18T04:20:34;15.70;99.90
28632;DHT22;15818;45.534;5.292;2022-10-18T04:22:59;15.70;99.90
28632;DHT22;15818;45.534;5.292;2022-10-18T04:25:25;15.70;99.90
28632;DHT22;15818;45.534;5.292;2022-10-18T04:27:51;15.70;99.90
28632;DHT22;15818;45.534;5.292;2022-10-18T04:30:17;15.70;99.90
28632;DHT22;15818;45.534;5.292;2022-10-18T04:32:42;15.60;99.90
28632;DHT22;15818;45.534;5.292;2022-10-18T04:35:08;15.60;99.90
28632;DHT22;15818;45.534;5.292;2022-10-18T04:37:34;15.60;99.90
28632;DHT22;15818;45.534;5.292;2022-10-18T04:40:00;15.60;99.90
28632;DHT22;15818;45.534;5.292;2022-10-18T04:42:26;15.50;99.90
28632;DHT22;15818;45.534;5.292;2022-10-18T04:44:51;15.50;99.90
28632;DHT22;15818;45.534;5.292;2022-10-18T04:47:17;15.50;99.90
28632;DHT22;15818;45.534;5.292;2022-10-18T04:49:43;15.50;99.90
28632;DHT22;15818;45.534;5.292;2022-10-18T04:52:08;15.50;99.90
28632;DHT22;15818;45.534;5.292;2022-10-18T04:54:34;15.50;99.90
28632;DHT22;15818;45.534;5.292;2022-10-18T04:57:00;15.50;99.90
28632;DHT22;15818;45.534;5.292;2022-10-18T04:59:26;15.50;99.90
28632;DHT22;15818;45.534;5.292;2022-10-18T05:01:51;15.50;99.90
28632;DHT22;15818;45.534;5.292;2022-10-18T05:04:17;15.40;99.90
28632;DHT22;15818;45.534;5.292;2022-10-18T05:06:42;15.40;99.90
28632;DHT22;15818;45.534;5.292;2022-10-18T05:09:08;15.40;99.90
28632;DHT22;15818;45.534;5.292;2022-10-18T05:11:34;15.40;99.90
28632;DHT22;15818;45.534;5.292;2022-10-18T05:13:59;15.30;99.90
28632;DHT22;15818;45.534;5.292;2022-10-18T05:16:25;15.20;99.90
28632;DHT22;15818;45.534;5.292;2022-10-18T05:18:53;15.30;99.90
28632;DHT22;15818;45.534;5.292;2022-10-18T05:21:18;15.30;99.90
28632;DHT22;15818;45.534;5.292;2022-10-18T05:23:44;15.20;99.90
28632;DHT22;15818;45.534;5.292;2022-10-18T05:26:10;15.30;99.90
28632;DHT22;15818;45.534;5.292;2022-10-18T05:28:35;15.30;99.90
28632;DHT22;15818;45.534;5.292;2022-10-18T05:31:04;15.30;99.90
28632;DHT22;15818;45.534;5.292;2022-10-18T05:33:30;15.30;99.90
28632;DHT22;15818;45.534;5.292;2022-10-18T05:35:56;15.30;99.90
28632;DHT22;15818;45.534;5.292;2022-10-18T05:38:21;15.30;99.90
28632;DHT22;15818;45.534;5.292;2022-10-18T05:40:47;15.40;99.90
28632;DHT22;15818;45.534;5.292;2022-10-18T05:43:13;15.40;99.90
28632;DHT22;15818;45.534;5.292;2022-10-18T05:45:39;15.40;99.90
28632;DHT22;15818;45.534;5.292;2022-10-18T05:48:05;15.40;99.90
28632;DHT22;15818;45.534;5.292;2022-10-18T05:50:32;15.40;99.90
28632;DHT22;15818;45.534;5.292;2022-10-18T05:52:57;15.50;99.90
28632;DHT22;15818;45.534;5.292;2022-10-18T05:55:23;15.50;99.90
28632;DHT22;15818;45.534;5.292;2022-10-18T05:57:49;15.40;99.90
28632;DHT22;15818;45.534;5.292;2022-10-18T06:00:16;15.40;99.90
28632;DHT22;15818;45.534;5.292;2022-10-18T06:02:42;15.40;99.90
28632;DHT22;15818;45.534;5.292;2022-10-18T06:05:07;15.30;99.90
28632;DHT22;15818;45.534;5.292;2022-10-18T06:07:33;15.40;99.90
28632;DHT22;15818;45.534;5.292;2022-10-18T06:09:59;15.30;99.90
28632;DHT22;15818;45.534;5.292;2022-10-18T06:12:24;15.30;99.90
28632;DHT22;15818;45.534;5.292;2022-10-18T06:14:50;15.30;99.90
28632;DHT22;15818;45.534;5.292;2022-10-18T06:17:16;15.30;99.90
28632;DHT22;15818;45.534;5.292;2022-10-18T06:19:41;15.40;99.90
28632;DHT22;15818;45.534;5.292;2022-10-18T06:22:09;15.30;99.90
28632;DHT22;15818;45.534;5.292;2022-10-18T06:24:35;15.30;99.90
28632;DHT22;15818;45.534;5.292;2022-10-18T06:27:00;15.30;99.90
28632;DHT22;15818;45.534;5.292;2022-10-18T06:29:32;15.30;99.90
28632;DHT22;15818;45.534;5.292;2022-10-18T06:31:58;15.40;99.90
28632;DHT22;15818;45.534;5.292;2022-10-18T06:34:23;15.40;99.90
28632;DHT22;15818;45.534;5.292;2022-10-18T06:36:49;15.40;99.90
28632;DHT22;15818;45.534;5.292;2022-10-18T06:39:14;15.50;99.90
28632;DHT22;15818;45.534;5.292;2022-10-18T06:41:40;15.50;99.90
28632;DHT22;15818;45.534;5.292;2022-10-18T06:44:06;15.60;99.90
28632;DHT22;15818;45.534;5.292;2022-10-18T06:46:39;15.60;99.90
28632;DHT22;15818;45.534;5.292;2022-10-18T06:49:05;15.50;99.90
28632;DHT22;15818;45.534;5.292;2022-10-18T06:51:31;15.60;99.90
28632;DHT22;15818;45.534;5.292;2022-10-18T06:53:56;15.70;99.90
28632;DHT22;15818;45.534;5.292;2022-10-18T06:56:22;15.80;99.90
28632;DHT22;15818;45.534;5.292;2022-10-18T06:58:48;15.80;99.90
28632;DHT22;15818;45.534;5.292;2022-10-18T07:01:14;15.90;99.90
28632;DHT22;15818;45.534;5.292;2022-10-18T07:03:41;16.00;99.90
28632;DHT22;15818;45.534;5.292;2022-10-18T07:06:08;16.00;99.90
28632;DHT22;15818;45.534;5.292;2022-10-18T07:08:34;16.00;99.90
28632;DHT22;15818;45.534;5.292;2022-10-18T07:11:00;16.10;99.90
28632;DHT22;15818;45.534;5.292;2022-10-18T07:13:30;16.20;99.90
28632;DHT22;15818;45.534;5.292;2022-10-18T07:16:16;16.30;99.90
28632;DHT22;15818;45.534;5.292;2022-10-18T07:18:46;16.50;99.90
28632;DHT22;15818;45.534;5.292;2022-10-18T07:21:14;16.60;99.90
28632;DHT22;15818;45.534;5.292;2022-10-18T07:23:42;16.60;99.90
28632;DHT22;15818;45.534;5.292;2022-10-18T07:26:21;16.70;99.90
28632;DHT22;15818;45.534;5.292;2022-10-18T07:28:50;16.70;99.90
28632;DHT22;15818;45.534;5.292;2022-10-18T07:31:16;16.80;99.90
28632;DHT22;15818;45.534;5.292;2022-10-18T07:33:42;17.00;99.90
28632;DHT22;15818;45.534;5.292;2022-10-18T07:36:10;17.10;99.90
28632;DHT22;15818;45.534;5.292;2022-10-18T07:38:36;17.20;99.90
28632;DHT22;15818;45.534;5.292;2022-10-18T07:41:03;17.30;99.90
28632;DHT22;15818;45.534;5.292;2022-10-18T07:43:30;17.50;99.90
28632;DHT22;15818;45.534;5.292;2022-10-18T07:45:59;17.80;99.90
28632;DHT22;15818;45.534;5.292;2022-10-18T07:48:26;17.80;99.90
28632;DHT22;15818;45.534;5.292;2022-10-18T07:50:53;17.90;99.90
28632;DHT22;15818;45.534;5.292;2022-10-18T07:53:18;18.10;99.90
28632;DHT22;15818;45.534;5.292;2022-10-18T07:55:44;18.10;99.90
28632;DHT22;15818;45.534;5.292;2022-10-18T07:58:10;18.30;99.90
28632;DHT22;15818;45.534;5.292;2022-10-18T08:00:36;18.50;99.90
28632;DHT22;15818;45.534;5.292;2022-10-18T08:03:03;18.80;99.90
28632;DHT22;15818;45.534;5.292;2022-10-18T08:05:29;19.00;99.90
28632;DHT22;15818;45.534;5.292;2022-10-18T08:07:55;19.00;99.90
28632;DHT22;15818;45.534;5.292;2022-10-18T08:10:22;19.10;99.90
28632;DHT22;15818;45.534;5.292;2022-10-18T08:12:49;20.00;99.90
28632;DHT22;15818;45.534;5.292;2022-10-18T08:15:15;20.50;99.90
28632;DHT22;15818;45.534;5.292;2022-10-18T08:17:41;20.80;99.90
28632;DHT22;15818;45.534;5.292;2022-10-18T08:20:08;21.00;99.90
28632;DHT22;15818;45.534;5.292;2022-10-18T08:22:34;21.00;99.90
28632;DHT22;15818;45.534;5.292;2022-10-18T08:25:00;20.90;99.90
28632;DHT22;15818;45.534;5.292;2022-10-18T08:27:25;20.50;99.90
28632;DHT22;15818;45.534;5.292;2022-10-18T08:29:51;20.30;99.90
28632;DHT22;15818;45.534;5.292;2022-10-18T08:32:17;20.40;99.90
28632;DHT22;15818;45.534;5.292;2022-10-18T08:34:42;20.80;99.90
28632;DHT22;15818;45.534;5.292;2022-10-18T08:37:08;21.40;99.90
28632;DHT22;15818;45.534;5.292;2022-10-18T08:39:34;21.90;99.90
28632;DHT22;15818;45.534;5.292;2022-10-18T08:44:48;21.50;99.90
28632;DHT22;15818;45.534;5.292;2022-10-18T08:47:20;22.20;99.90
28632;DHT22;15818;45.534;5.292;2022-10-18T08:49:49;21.90;99.90
28632;DHT22;15818;45.534;5.292;2022-10-18T08:52:43;22.90;99.90
28632;DHT22;15818;45.534;5.292;2022-10-18T08:55:21;23.40;99.90
28632;DHT22;15818;45.534;5.292;2022-10-18T08:57:50;23.70;99.90
28632;DHT22;15818;45.534;5.292;2022-10-18T09:00:22;25.40;99.90
28632;DHT22;15818;45.534;5.292;2022-10-18T09:04:13;24.40;99.90
28632;DHT22;15818;45.534;5.292;2022-10-18T09:06:18;24.70;99.90
28632;DHT22;15818;45.534;5.292;2022-10-18T09:20:25;26.60;99.90
28632;DHT22;15818;45.534;5.292;2022-10-18T09:23:01;27.80;99.90
28632;DHT22;15818;45.534;5.292;2022-10-18T09:31:39;28.30;99.90
28632;DHT22;15818;45.534;5.292;2022-10-18T09:36:58;28.20;99.90
28632;DHT22;15818;45.534;5.292;2022-10-18T09:39:37;27.70;99.90
28632;DHT22;15818;45.534;5.292;2022-10-18T09:42:06;28.60;99.90
28632;DHT22;15818;45.534;5.292;2022-10-18T09:44:40;29.00;99.90
28632;DHT22;15818;45.534;5.292;2022-10-18T09:47:37;28.80;99.90
28632;DHT22;15818;45.534;5.292;2022-10-18T09:50:22;30.20;99.90
28632;DHT22;15818;45.534;5.292;2022-10-18T09:53:12;29.80;99.90
28632;DHT22;15818;45.534;5.292;2022-10-18T09:58:19;29.40;99.90
28632;DHT22;15818;45.534;5.292;2022-10-18T10:00:49;29.90;99.90
28632;DHT22;15818;45.534;5.292;2022-10-18T10:03:16;30.60;99.90
28632;DHT22;15818;45.534;5.292;2022-10-18T10:05:42;30.10;99.90
28632;DHT22;15818;45.534;5.292;2022-10-18T10:08:08;31.30;99.90
28632;DHT22;15818;45.534;5.292;2022-10-18T10:10:38;31.80;99.90
28632;DHT22;15818;45.534;5.292;2022-10-18T10:13:18;31.50;99.90
28632;DHT22;15818;45.534;5.292;2022-10-18T10:16:00;30.40;99.90
28632;DHT22;15818;45.534;5.292;2022-10-18T10:18:32;31.60;99.90
28632;DHT22;15818;45.534;5.292;2022-10-18T10:21:12;31.20;99.90
28632;DHT22;15818;45.534;5.292;2022-10-18T10:23:53;31.20;99.90
28632;DHT22;15818;45.534;5.292;2022-10-18T10:26:29;31.40;99.90
28632;DHT22;15818;45.534;5.292;2022-10-18T10:28:55;31.70;99.90
28632;DHT22;15818;45.534;5.292;2022-10-18T10:31:27;32.60;99.90
28632;DHT22;15818;45.534;5.292;2022-10-18T10:36:49;31.70;99.90
28632;DHT22;15818;45.534;5.292;2022-10-18T10:39:17;31.70;99.90
28632;DHT22;15818;45.534;5.292;2022-10-18T10:41:52;32.90;99.90
28632;DHT22;15818;45.534;5.292;2022-10-18T10:44:23;33.30;99.90
28632;DHT22;15818;45.534;5.292;2022-10-18T10:46:50;32.50;99.90
28632;DHT22;15818;45.534;5.292;2022-10-18T10:49:21;32.80;99.90
28632;DHT22;15818;45.534;5.292;2022-10-18T10:52:20;33.20;99.90
28632;DHT22;15818;45.534;5.292;2022-10-18T10:54:47;33.70;99.90
28632;DHT22;15818;45.534;5.292;2022-10-18T10:59:47;32.60;99.90
28632;DHT22;15818;45.534;5.292;2022-10-18T11:04:51;32.60;99.90
28632;DHT22;15818;45.534;5.292;2022-10-18T11:07:33;32.20;99.90
28632;DHT22;15818;45.534;5.292;2022-10-18T11:12:45;33.50;99.90
28632;DHT22;15818;45.534;5.292;2022-10-18T11:18:05;34.60;99.90
28632;DHT22;15818;45.534;5.292;2022-10-18T11:20:39;34.50;99.90
28632;DHT22;15818;45.534;5.292;2022-10-18T11:23:09;33.50;99.90
28632;DHT22;15818;45.534;5.292;2022-10-18T11:31:11;34.30;99.90
28632;DHT22;15818;45.534;5.292;2022-10-18T11:36:28;35.40;99.60
28632;DHT22;15818;45.534;5.292;2022-10-18T11:38:56;34.90;99.40
28632;DHT22;15818;45.534;5.292;2022-10-18T11:41:42;35.20;99.90
28632;DHT22;15818;45.534;5.292;2022-10-18T11:52:21;33.80;99.70
28632;DHT22;15818;45.534;5.292;2022-10-18T11:57:42;31.80;99.90
28632;DHT22;15818;45.534;5.292;2022-10-18T12:05:50;34.10;99.40
28632;DHT22;15818;45.534;5.292;2022-10-18T12:08:37;34.30;99.80
28632;DHT22;15818;45.534;5.292;2022-10-18T12:11:13;33.30;99.60
28632;DHT22;15818;45.534;5.292;2022-10-18T12:13:47;32.40;99.90
28632;DHT22;15818;45.534;5.292;2022-10-18T12:16:15;31.90;99.90
28632;DHT22;15818;45.534;5.292;2022-10-18T12:19:24;33.00;99.30
28632;DHT22;15818;45.534;5.292;2022-10-18T12:21:51;33.00;99.90
28632;DHT22;15818;45.534;5.292;2022-10-18T12:24:21;33.40;99.90
28632;DHT22;15818;45.534;5.292;2022-10-18T12:26:51;32.70;99.60
28632;DHT22;15818;45.534;5.292;2022-10-18T12:29:33;33.60;98.60
28632;DHT22;15818;45.534;5.292;2022-10-18T12:32:08;33.40;99.50
28632;DHT22;15818;45.534;5.292;2022-10-18T12:34:59;33.30;98.10
28632;DHT22;15818;45.534;5.292;2022-10-18T12:40:14;32.10;99.10
28632;DHT22;15818;45.534;5.292;2022-10-18T12:42:46;32.60;99.70
28632;DHT22;15818;45.534;5.292;2022-10-18T12:47:38;32.90;99.60
28632;DHT22;15818;45.534;5.292;2022-10-18T12:50:23;31.30;99.20
28632;DHT22;15818;45.534;5.292;2022-10-18T12:53:06;30.90;99.90
28632;DHT22;15818;45.534;5.292;2022-10-18T12:55:40;30.80;99.90
28632;DHT22;15818;45.534;5.292;2022-10-18T13:25:10;27.90;99.90
28632;DHT22;15818;45.534;5.292;2022-10-18T13:28:24;27.90;99.90
28632;DHT22;15818;45.534;5.292;2022-10-18T13:31:18;28.20;99.90
28632;DHT22;15818;45.534;5.292;2022-10-18T13:33:44;28.20;99.90
28632;DHT22;15818;45.534;5.292;2022-10-18T14:08:34;27.70;99.90
28632;DHT22;15818;45.534;5.292;2022-10-18T14:11:04;27.60;99.90
28632;DHT22;15818;45.534;5.292;2022-10-18T14:13:53;27.40;99.90
28632;DHT22;15818;45.534;5.292;2022-10-18T14:16:30;27.80;99.90
28632;DHT22;15818;45.534;5.292;2022-10-18T14:20:12;27.70;99.90
28632;DHT22;15818;45.534;5.292;2022-10-18T14:22:17;28.10;99.90
28632;DHT22;15818;45.534;5.292;2022-10-18T14:24:46;28.20;99.90
28632;DHT22;15818;45.534;5.292;2022-10-18T14:27:23;27.70;99.90
28632;DHT22;15818;45.534;5.292;2022-10-18T14:32:49;26.90;99.90
28632;DHT22;15818;45.534;5.292;2022-10-18T14:35:27;26.50;99.90
28632;DHT22;15818;45.534;5.292;2022-10-18T14:37:54;26.60;99.90
28632;DHT22;15818;45.534;5.292;2022-10-18T14:42:55;26.60;99.90
28632;DHT22;15818;45.534;5.292;2022-10-18T14:45:22;26.50;99.90
28632;DHT22;15818;45.534;5.292;2022-10-18T14:47:48;26.10;99.90
28632;DHT22;15818;45.534;5.292;2022-10-18T14:50:23;25.40;99.90
28632;DHT22;15818;45.534;5.292;2022-10-18T14:52:49;25.30;99.90
28632;DHT22;15818;45.534;5.292;2022-10-18T14:55:22;25.40;99.90
28632;DHT22;15818;45.534;5.292;2022-10-18T14:57:49;25.50;99.90
28632;DHT22;15818;45.534;5.292;2022-10-18T15:00:22;25.60;99.90
28632;DHT22;15818;45.534;5.292;2022-10-18T15:02:50;25.70;99.90
28632;DHT22;15818;45.534;5.292;2022-10-18T15:05:17;25.40;99.90
28632;DHT22;15818;45.534;5.292;2022-10-18T15:07:47;25.40;99.90
28632;DHT22;15818;45.534;5.292;2022-10-18T15:10:24;25.50;99.90
28632;DHT22;15818;45.534;5.292;2022-10-18T15:12:52;25.50;99.90
28632;DHT22;15818;45.534;5.292;2022-10-18T15:15:24;25.20;99.90
28632;DHT22;15818;45.534;5.292;2022-10-18T15:17:52;24.80;99.90
28632;DHT22;15818;45.534;5.292;2022-10-18T15:20:24;24.40;99.90
28632;DHT22;15818;45.534;5.292;2022-10-18T15:22:51;24.40;99.90
28632;DHT22;15818;45.534;5.292;2022-10-18T15:25:27;24.40;99.90
28632;DHT22;15818;45.534;5.292;2022-10-18T15:27:59;24.50;99.90
28632;DHT22;15818;45.534;5.292;2022-10-18T15:30:27;24.50;99.90
28632;DHT22;15818;45.534;5.292;2022-10-18T15:32:56;24.30;99.90
28632;DHT22;15818;45.534;5.292;2022-10-18T15:35:26;24.10;99.90
28632;DHT22;15818;45.534;5.292;2022-10-18T15:37:54;24.00;99.90
28632;DHT22;15818;45.534;5.292;2022-10-18T15:42:48;24.00;99.90
28632;DHT22;15818;45.534;5.292;2022-10-18T15:50:45;23.90;99.90
28632;DHT22;15818;45.534;5.292;2022-10-18T15:58:29;23.60;99.90
28632;DHT22;15818;45.534;5.292;2022-10-18T16:01:01;23.40;99.90
28632;DHT22;15818;45.534;5.292;2022-10-18T16:03:32;23.40;99.90
28632;DHT22;15818;45.534;5.292;2022-10-18T16:06:03;23.20;99.90
28632;DHT22;15818;45.534;5.292;2022-10-18T16:08:29;23.10;99.90
28632;DHT22;15818;45.534;5.292;2022-10-18T16:10:59;23.00;99.90
28632;DHT22;15818;45.534;5.292;2022-10-18T16:13:25;23.00;99.90
28632;DHT22;15818;45.534;5.292;2022-10-18T16:15:52;22.90;99.90
28632;DHT22;15818;45.534;5.292;2022-10-18T16:18:21;22.90;99.90
28632;DHT22;15818;45.534;5.292;2022-10-18T16:20:47;22.80;99.90
28632;DHT22;15818;45.534;5.292;2022-10-18T16:25:43;22.70;99.90
28632;DHT22;15818;45.534;5.292;2022-10-18T16:28:14;22.60;99.90
28632;DHT22;15818;45.534;5.292;2022-10-18T16:30:42;22.50;99.90
28632;DHT22;15818;45.534;5.292;2022-10-18T16:33:08;22.40;99.90
28632;DHT22;15818;45.534;5.292;2022-10-18T16:35:34;22.30;99.90
28632;DHT22;15818;45.534;5.292;2022-10-18T16:38:00;22.20;99.90
28632;DHT22;15818;45.534;5.292;2022-10-18T16:40:26;22.30;99.90
28632;DHT22;15818;45.534;5.292;2022-10-18T16:42:52;22.20;99.90
28632;DHT22;15818;45.534;5.292;2022-10-18T16:45:18;22.00;99.90
28632;DHT22;15818;45.534;5.292;2022-10-18T16:47:44;22.00;99.90
28632;DHT22;15818;45.534;5.292;2022-10-18T16:50:14;21.80;99.90
28632;DHT22;15818;45.534;5.292;2022-10-18T16:52:41;21.70;99.90
28632;DHT22;15818;45.534;5.292;2022-10-18T16:55:07;21.60;99.90
28632;DHT22;15818;45.534;5.292;2022-10-18T16:57:40;21.50;99.90
28632;DHT22;15818;45.534;5.292;2022-10-18T17:00:12;21.50;99.90
28632;DHT22;15818;45.534;5.292;2022-10-18T17:02:40;21.40;99.90
28632;DHT22;15818;45.534;5.292;2022-10-18T17:05:06;21.40;99.90
28632;DHT22;15818;45.534;5.292;2022-10-18T17:07:32;21.30;99.90
28632;DHT22;15818;45.534;5.292;2022-10-18T17:09:57;21.20;99.90
28632;DHT22;15818;45.534;5.292;2022-10-18T17:12:23;21.10;99.90
28632;DHT22;15818;45.534;5.292;2022-10-18T17:14:49;21.00;99.90
28632;DHT22;15818;45.534;5.292;2022-10-18T17:17:14;21.00;99.90
28632;DHT22;15818;45.534;5.292;2022-10-18T17:19:40;20.90;99.90
28632;DHT22;15818;45.534;5.292;2022-10-18T17:22:06;20.90;99.90
28632;DHT22;15818;45.534;5.292;2022-10-18T17:24:31;20.80;99.90
28632;DHT22;15818;45.534;5.292;2022-10-18T17:26:57;20.70;99.90
28632;DHT22;15818;45.534;5.292;2022-10-18T17:29:23;20.60;99.90
28632;DHT22;15818;45.534;5.292;2022-10-18T17:31:48;20.60;99.90
28632;DHT22;15818;45.534;5.292;2022-10-18T17:34:14;20.60;99.90
28632;DHT22;15818;45.534;5.292;2022-10-18T17:36:43;20.50;99.90
28632;DHT22;15818;45.534;5.292;2022-10-18T17:39:10;20.50;99.90
28632;DHT22;15818;45.534;5.292;2022-10-18T17:41:36;20.40;99.90
28632;DHT22;15818;45.534;5.292;2022-10-18T17:44:04;20.30;99.90
28632;DHT22;15818;45.534;5.292;2022-10-18T17:46:31;20.30;99.90
28632;DHT22;15818;45.534;5.292;2022-10-18T17:48:56;20.20;99.90
28632;DHT22;15818;45.534;5.292;2022-10-18T17:51:22;20.20;99.90
28632;DHT22;15818;45.534;5.292;2022-10-18T17:53:48;20.20;99.90
28632;DHT22;15818;45.534;5.292;2022-10-18T17:56:14;20.20;99.90
28632;DHT22;15818;45.534;5.292;2022-10-18T17:58:40;20.10;99.90
28632;DHT22;15818;45.534;5.292;2022-10-18T18:01:16;20.00;99.90
28632;DHT22;15818;45.534;5.292;2022-10-18T18:03:42;20.00;99.90
28632;DHT22;15818;45.534;5.292;2022-10-18T18:06:21;20.00;99.90
28632;DHT22;15818;45.534;5.292;2022-10-18T18:08:48;20.10;99.90
28632;DHT22;15818;45.534;5.292;2022-10-18T18:11:14;20.10;99.90
28632;DHT22;15818;45.534;5.292;2022-10-18T18:13:41;20.10;99.90
28632;DHT22;15818;45.534;5.292;2022-10-18T18:16:27;20.10;99.90
28632;DHT22;15818;45.534;5.292;2022-10-18T18:18:55;20.00;99.90
28632;DHT22;15818;45.534;5.292;2022-10-18T18:21:21;20.00;99.90
28632;DHT22;15818;45.534;5.292;2022-10-18T18:23:48;20.00;99.90
28632;DHT22;15818;45.534;5.292;2022-10-18T18:26:14;20.00;99.90
28632;DHT22;15818;45.534;5.292;2022-10-18T18:28:40;19.90;99.90
28632;DHT22;15818;45.534;5.292;2022-10-18T18:31:27;19.80;99.90
28632;DHT22;15818;45.534;5.292;2022-10-18T18:33:55;19.70;99.90
28632;DHT22;15818;45.534;5.292;2022-10-18T18:36:22;19.70;99.90
28632;DHT22;15818;45.534;5.292;2022-10-18T18:38:51;19.70;99.90
28632;DHT22;15818;45.534;5.292;2022-10-18T18:41:22;19.70;99.90
28632;DHT22;15818;45.534;5.292;2022-10-18T18:46:18;19.60;99.90